Observation data for Amherst on 01/11/2018      Previous  Date  Next       Current Mesonet Observations  Soil Data  Daily Summary Page  Observations in Plain Language
KAMH 110600Z 24018G25KT 09/M02 A2955 RMK A01 T00871015  RH  049%=      5-min Rain = 0
KAMH 110605Z 24018G27KT 09/M02 A2955 RMK A01 T00881015  RH  049%=      5-min Rain = 0
KAMH 110610Z 24019G26KT 09/M02 A2955 RMK A01 T00891015  RH  048%=      5-min Rain = 0
KAMH 110615Z 25019G26KT 09/M02 A2955 RMK A01 T00901015  RH  048%=      5-min Rain = 0
KAMH 110620Z 25018G26KT 09/M01 A2955 RMK A01 T00901014  RH  048%=      5-min Rain = 0
KAMH 110625Z 24021G28KT 09/M01 A2955 RMK A01 T00901014  RH  048%=      5-min Rain = 0
KAMH 110630Z 24020G26KT 09/M01 A2956 RMK A01 T00911014  RH  048%=      5-min Rain = 0
KAMH 110635Z 25020G26KT 09/M01 A2956 RMK A01 T00901013  RH  049%=      5-min Rain = 0
KAMH 110640Z 24019G30KT 09/M01 A2956 RMK A01 T00891012  RH  049%=      5-min Rain = 0
KAMH 110645Z 25018G27KT 09/M01 A2956 RMK A01 T00881011  RH  050%=      5-min Rain = 0
KAMH 110650Z 25019G25KT 09/M01 A2956 RMK A01 T00871011  RH  051%=      5-min Rain = 0
KAMH 110655Z 25020G28KT 09/M01 A2956 RMK A01 T00871011  RH  051%=      5-min Rain = 0
KAMH 110700Z 26020G28KT 09/M01 A2957 RMK A01 T00861011  RH  051%=      5-min Rain = 0
KAMH 110705Z 25020G27KT 09/M01 A2957 RMK A01 T00861010  RH  051%=      5-min Rain = 0
KAMH 110710Z 25019G28KT 09/M01 A2957 RMK A01 T00851010  RH  052%=      5-min Rain = 0
KAMH 110715Z 25019G27KT 09/M01 A2958 RMK A01 T00851009  RH  052%=      5-min Rain = 0
KAMH 110720Z 25018G26KT 08/M01 A2958 RMK A01 T00831009  RH  053%=      5-min Rain = 0
KAMH 110725Z 25020G26KT 08/M01 A2958 RMK A01 T00831008  RH  053%=      5-min Rain = 0
KAMH 110730Z 26019G24KT 08/M01 A2959 RMK A01 T00831007  RH  054%=      5-min Rain = 0
KAMH 110735Z 26016G21KT 08/M01 A296 RMK A01 T00811006  RH  054%=      5-min Rain = 0
KAMH 110740Z 27016G21KT 08/M01 A2961 RMK A01 T00801006  RH  055%=      5-min Rain = 0
KAMH 110745Z 27016G24KT 08/M01 A2961 RMK A01 T00791005  RH  056%=      5-min Rain = 0
KAMH 110750Z 27019G24KT 08/M00 A2962 RMK A01 T00801004  RH  056%=      5-min Rain = 0
KAMH 110755Z 27018KT 08/M00 A2962 RMK A01 T00801004  RH  056%=      5-min Rain = 0
KAMH 110800Z 28017G22KT 08/M00 A2963 RMK A01 T00811003  RH  056%=      5-min Rain = 0
KAMH 110805Z 27016G22KT 08/M00 A2963 RMK A01 T00801002  RH  057%=      5-min Rain = 0
KAMH 110810Z 27017G23KT 08/M00 A2963 RMK A01 T00811001  RH  057%=      5-min Rain = 0
KAMH 110815Z 27017KT 08/M00 A2964 RMK A01 T00811001  RH  057%=      5-min Rain = 0
KAMH 110820Z 28016G21KT 08/M00 A2964 RMK A01 T00811001  RH  057%=      5-min Rain = 0
KAMH 110825Z 28015KT 08/M00 A2965 RMK A01 T00801001  RH  058%=      5-min Rain = 0
KAMH 110830Z 28016KT 08/00 A2965 RMK A01 T007900-0  RH  058%=      5-min Rain = 0
KAMH 110835Z 29015G20KT 08/00 A2966 RMK A01 T008000-0  RH  058%=      5-min Rain = 0
KAMH 110840Z 30016G21KT 08/00 A2966 RMK A01 T00830001  RH  057%=      5-min Rain = 0
KAMH 110845Z 31017KT 09/00 A2966 RMK A01 T00870004  RH  056%=      5-min Rain = 0
KAMH 110850Z 31017G22KT 09/01 A2967 RMK A01 T00890008  RH  057%=      5-min Rain = 0
KAMH 110855Z 32018KT 09/01 A2967 RMK A01 T00920013  RH  059%=      5-min Rain = 0
KAMH 110900Z 34021G32KT 09/02 A2967 RMK A01 T00940021  RH  061%=      5-min Rain = 0
KAMH 110905Z 35027G33KT 10/03 A2967 RMK A01 T00960029  RH  064%=      5-min Rain = 0
KAMH 110910Z 35025G31KT 10/03 A2967 RMK A01 T00950030  RH  065%=      5-min Rain = 0
KAMH 110915Z 35024G32KT 09/03 A2968 RMK A01 T00940031  RH  066%=      5-min Rain = 0
KAMH 110920Z 35028G39KT 09/03 A2969 RMK A01 T00920029  RH  066%=      5-min Rain = 0
KAMH 110925Z 35035G40KT 09/03 A2969 RMK A01 T00890026  RH  066%=      5-min Rain = 0
KAMH 110930Z 35034G41KT 09/02 A297 RMK A01 T00860022  RH  066%=      5-min Rain = 0
KAMH 110935Z 35032G41KT 08/01 A297 RMK A01 T00820014  RH  063%=      5-min Rain = 0
KAMH 110940Z 35034G42KT 08/01 A297 RMK A01 T00790010  RH  063%=      5-min Rain = 0
KAMH 110945Z 36031G42KT 08/01 A297 RMK A01 T00760009  RH  063%=      5-min Rain = 0
KAMH 110950Z 36030G42KT 07/01 A297 RMK A01 T00740009  RH  065%=      5-min Rain = 0
KAMH 110955Z 35026G33KT 07/01 A2971 RMK A01 T00710010  RH  066%=      5-min Rain = 0
KAMH 111000Z 35025G32KT 07/01 A2971 RMK A01 T00700011  RH  067%=      5-min Rain = 0
KAMH 111005Z 35024G32KT 07/01 A2971 RMK A01 T00680011  RH  068%=      5-min Rain = 0
KAMH 111010Z 35025G31KT 07/01 A2971 RMK A01 T00670012  RH  069%=      5-min Rain = 0
KAMH 111015Z 35022G29KT 07/01 A2972 RMK A01 T00660013  RH  070%=      5-min Rain = 0
KAMH 111020Z 34022G32KT 07/01 A2972 RMK A01 T00650011  RH  069%=      5-min Rain = 0
KAMH 111025Z 35028G36KT 06/01 A2973 RMK A01 T00640007  RH  068%=      5-min Rain = 0
KAMH 111030Z 35028G36KT 06/01 A2973 RMK A01 T00630005  RH  067%=      5-min Rain = 0
KAMH 111035Z 35026G33KT 06/00 A2973 RMK A01 T00620004  RH  067%=      5-min Rain = 0
KAMH 111040Z 35024G31KT 06/00 A2974 RMK A01 T00610004  RH  068%=      5-min Rain = 0
KAMH 111045Z 34021G26KT 06/01 A2975 RMK A01 T00610005  RH  069%=      5-min Rain = 0
KAMH 111050Z 34020G28KT 06/01 A2975 RMK A01 T00600006  RH  069%=      5-min Rain = 0
KAMH 111055Z 34025G31KT 06/00 A2975 RMK A01 T00600004  RH  068%=      5-min Rain = 0
KAMH 111100Z 34024G30KT 06/00 A2975 RMK A01 T00600002  RH  067%=      5-min Rain = 0
KAMH 111105Z 34025G31KT 06/00 A2976 RMK A01 T00590001  RH  067%=      5-min Rain = 0
KAMH 111110Z 34022KT 06/00 A2976 RMK A01 T005800-0  RH  067%=      5-min Rain = 0
KAMH 111115Z 34024G30KT 06/M00 A2977 RMK A01 T00581002  RH  066%=      5-min Rain = 0
KAMH 111120Z 34026G33KT 06/M00 A2977 RMK A01 T00561003  RH  066%=      5-min Rain = 0
KAMH 111125Z 35030G37KT 06/M00 A2977 RMK A01 T00551004  RH  066%=      5-min Rain = 0
KAMH 111130Z 35029G36KT 05/M01 A2978 RMK A01 T00531005  RH  067%=      5-min Rain = 0
KAMH 111135Z 36028G36KT 05/M01 A2979 RMK A01 T00511005  RH  068%=      5-min Rain = 0
KAMH 111140Z 35024G31KT 05/M01 A298 RMK A01 T00491005  RH  069%=      5-min Rain = 0
KAMH 111145Z 35027G37KT 05/M01 A298 RMK A01 T00491006  RH  068%=      5-min Rain = 0
KAMH 111150Z 35028G35KT 05/M01 A2981 RMK A01 T00461009  RH  068%=      5-min Rain = 0
KAMH 111155Z 36022G29KT 04/M01 A2981 RMK A01 T00431010  RH  069%=      5-min Rain = 0
KAMH 111200Z 35022G30KT 04/M01 A2982 RMK A01 T00421009  RH  070%=      5-min Rain = 0
KAMH 111205Z 34023G33KT 04/M01 A2982 RMK A01 T00411009  RH  071%=      5-min Rain = 0
KAMH 111210Z 34029G35KT 04/M02 A2983 RMK A01 T00361015  RH  070%=      5-min Rain = 0
KAMH 111215Z 34027G35KT 03/M02 A2984 RMK A01 T00331017  RH  070%=      5-min Rain = 0
KAMH 111220Z 34029G37KT 03/M02 A2984 RMK A01 T00321019  RH  070%=      5-min Rain = 0
KAMH 111225Z 34030G39KT 03/M02 A2986 RMK A01 T00311021  RH  069%=      5-min Rain = 0
KAMH 111230Z 35028G36KT 03/M02 A2986 RMK A01 T00291023  RH  069%=      5-min Rain = 0
KAMH 111235Z 35025G30KT 03/M03 A2987 RMK A01 T00281025  RH  069%=      5-min Rain = 0
KAMH 111240Z 35028G33KT 03/M03 A2987 RMK A01 T00271026  RH  069%=      5-min Rain = 0
KAMH 111245Z 35025G33KT 03/M03 A2988 RMK A01 T00251027  RH  069%=      5-min Rain = 0
KAMH 111250Z 35023G28KT 02/M03 A2988 RMK A01 T00241027  RH  069%=      5-min Rain = 0
KAMH 111255Z 35024G30KT 02/M03 A2989 RMK A01 T00241027  RH  070%=      5-min Rain = 0
KAMH 111300Z 35021G27KT 02/M03 A2989 RMK A01 T00231028  RH  070%=      5-min Rain = 0
KAMH 111305Z 35022G28KT 02/M03 A299 RMK A01 T00221028  RH  070%=      5-min Rain = 0
KAMH 111310Z 35021KT 02/M03 A299 RMK A01 T00211028  RH  070%=      5-min Rain = 0
KAMH 111315Z 35019G25KT 02/M03 A2991 RMK A01 T00211028  RH  071%=      5-min Rain = 0
KAMH 111320Z 35017KT 02/M03 A2992 RMK A01 T00201028  RH  071%=      5-min Rain = 0
KAMH 111325Z 35018G24KT 02/M03 A2992 RMK A01 T00201028  RH  071%=      5-min Rain = 0
KAMH 111330Z 35020G30KT 02/M03 A2992 RMK A01 T00191029  RH  071%=      5-min Rain = 0
KAMH 111335Z 35021G28KT 02/M04 A2992 RMK A01 T00171035  RH  069%=      5-min Rain = 0
KAMH 111340Z 34019G24KT 01/M04 A2993 RMK A01 T00141040  RH  068%=      5-min Rain = 0
KAMH 111345Z 34021KT 01/M04 A2993 RMK A01 T00111042  RH  068%=      5-min Rain = 0
KAMH 111350Z 34019G26KT 01/M04 A2993 RMK A01 T00101043  RH  068%=      5-min Rain = 0
KAMH 111355Z 34023G28KT 01/M05 A2994 RMK A01 T00081045  RH  068%=      5-min Rain = 0
KAMH 111400Z 35022G27KT 01/M05 A2994 RMK A01 T00081047  RH  067%=      5-min Rain = 0
KAMH 111405Z 35023G29KT 01/M05 A2995 RMK A01 T00071049  RH  066%=      5-min Rain = 0
KAMH 111410Z 35021G28KT 01/M05 A2995 RMK A01 T00071050  RH  066%=      5-min Rain = 0
KAMH 111415Z 35020G27KT 01/M05 A2995 RMK A01 T00061052  RH  065%=      5-min Rain = 0
KAMH 111420Z 34022KT 01/M05 A2996 RMK A01 T00061052  RH  065%=      5-min Rain = 0
KAMH 111425Z 34020G27KT 01/M05 A2996 RMK A01 T00061052  RH  065%=      5-min Rain = 0
KAMH 111430Z 34021G29KT 00/M05 A2997 RMK A01 T00041053  RH  066%=      5-min Rain = 0
KAMH 111435Z 34019G24KT 00/M05 A2997 RMK A01 T00031054  RH  066%=      5-min Rain = 0
KAMH 111440Z 34020G26KT 00/M06 A2998 RMK A01 T00011056  RH  066%=      5-min Rain = 0
KAMH 111445Z 34021G28KT 00/06 A2998 RMK A01 T00-00-58  RH  065%=      5-min Rain = 0
KAMH 111450Z 34024G31KT M00/M06 A2999 RMK A01 T10021061  RH  064%=      5-min Rain = 0
KAMH 111455Z 34023G28KT M00/M06 A2999 RMK A01 T10021064  RH  063%=      5-min Rain = 0
KAMH 111500Z 34022G29KT M00/M07 A30 RMK A01 T10031066  RH  063%=      5-min Rain = 0
KAMH 111505Z 34025G33KT M00/M07 A3001 RMK A01 T10031069  RH  061%=      5-min Rain = 0
KAMH 111510Z 35026G31KT M00/M07 A3001 RMK A01 T10021070  RH  060%=      5-min Rain = 0
KAMH 111515Z 35023G29KT 00/07 A3001 RMK A01 T00-00-69  RH  060%=      5-min Rain = 0
KAMH 111520Z 35023G30KT 00/M07 A3002 RMK A01 T00011069  RH  059%=      5-min Rain = 0
KAMH 111525Z 35024G32KT 00/M07 A3002 RMK A01 T00041068  RH  058%=      5-min Rain = 0
KAMH 111530Z 34023G31KT 01/M07 A3003 RMK A01 T00061068  RH  057%=      5-min Rain = 0
KAMH 111535Z 34025G30KT 01/M07 A3004 RMK A01 T00081069  RH  056%=      5-min Rain = 0
KAMH 111540Z 35027G35KT 01/M07 A3004 RMK A01 T00101070  RH  055%=      5-min Rain = 0
KAMH 111545Z 35029G38KT 01/M07 A3004 RMK A01 T00111071  RH  054%=      5-min Rain = 0
KAMH 111550Z 35028G35KT 01/M07 A3005 RMK A01 T00121071  RH  054%=      5-min Rain = 0
KAMH 111555Z 35027G34KT 01/M07 A3005 RMK A01 T00141071  RH  053%=      5-min Rain = 0
KAMH 111600Z 35028G33KT 01/M07 A3006 RMK A01 T00141072  RH  052%=      5-min Rain = 0
KAMH 111605Z 35030G37KT 02/M07 A3006 RMK A01 T00151074  RH  052%=      5-min Rain = 0
KAMH 111610Z 35029G37KT 02/M08 A3007 RMK A01 T00161075  RH  051%=      5-min Rain = 0
KAMH 111615Z 35031G36KT 02/M08 A3007 RMK A01 T00161077  RH  050%=      5-min Rain = 0
KAMH 111620Z 35029G35KT 02/M08 A3007 RMK A01 T00171076  RH  050%=      5-min Rain = 0
KAMH 111625Z 35027G33KT 02/M08 A3008 RMK A01 T00181076  RH  049%=      5-min Rain = 0
KAMH 111630Z 35025G31KT 02/M08 A3009 RMK A01 T00221076  RH  048%=      5-min Rain = 0
KAMH 111635Z 35028G36KT 02/M08 A3009 RMK A01 T00231077  RH  048%=      5-min Rain = 0
KAMH 111640Z 35029G35KT 02/M08 A3009 RMK A01 T00241078  RH  047%=      5-min Rain = 0
KAMH 111645Z 35028G34KT 03/M08 A301 RMK A01 T00261079  RH  046%=      5-min Rain = 0
KAMH 111650Z 35027G34KT 03/M08 A301 RMK A01 T00281081  RH  045%=      5-min Rain = 0
KAMH 111655Z 35029G35KT 03/M08 A3012 RMK A01 T00281082  RH  044%=      5-min Rain = 0
KAMH 111700Z 35027G38KT 03/M08 A3012 RMK A01 T00291082  RH  044%=      5-min Rain = 0
KAMH 111705Z 35029G35KT 03/M08 A3012 RMK A01 T00311084  RH  043%=      5-min Rain = 0
KAMH 111710Z 35027G33KT 03/M09 A3012 RMK A01 T00331085  RH  042%=      5-min Rain = 0
KAMH 111715Z 35025G31KT 04/M09 A3013 RMK A01 T00361085  RH  041%=      5-min Rain = 0
KAMH 111720Z 35023G29KT 04/M08 A3013 RMK A01 T00381084  RH  041%=      5-min Rain = 0
KAMH 111725Z 35024G30KT 04/M08 A3014 RMK A01 T00391084  RH  040%=      5-min Rain = 0
KAMH 111730Z 35026G31KT 04/M09 A3014 RMK A01 T00371086  RH  040%=      5-min Rain = 0
KAMH 111735Z 36027G33KT 04/M09 A3014 RMK A01 T00391090  RH  038%=      5-min Rain = 0
KAMH 111740Z 36025G32KT 04/M09 A3014 RMK A01 T00411088  RH  038%=      5-min Rain = 0
KAMH 111745Z 35028G35KT 04/M09 A3014 RMK A01 T00431089  RH  038%=      5-min Rain = 0
KAMH 111750Z 00026G32KT 04/M09 A3015 RMK A01 T00421090  RH  037%=      5-min Rain = 0
KAMH 111755Z 00023G29KT 05/M09 A3015 RMK A01 T00461087  RH  037%=      5-min Rain = 0
KAMH 111800Z 35024G31KT 05/M09 A3015 RMK A01 T00491087  RH  037%=      5-min Rain = 0
KAMH 111805Z 36024G29KT 05/M09 A3015 RMK A01 T00481088  RH  037%=      5-min Rain = 0
KAMH 111810Z 35025G31KT 05/M09 A3015 RMK A01 T00491089  RH  036%=      5-min Rain = 0
KAMH 111815Z 35026G31KT 05/M09 A3015 RMK A01 T00501092  RH  035%=      5-min Rain = 0
KAMH 111820Z 35024G29KT 05/M09 A3016 RMK A01 T00511091  RH  035%=      5-min Rain = 0
KAMH 111825Z 35023G30KT 06/M09 A3016 RMK A01 T00551090  RH  034%=      5-min Rain = 0
KAMH 111830Z 34026G32KT 06/M09 A3016 RMK A01 T00561093  RH  033%=      5-min Rain = 0
KAMH 111835Z 36023G30KT 06/M09 A3016 RMK A01 T00571093  RH  033%=      5-min Rain = 0
KAMH 111840Z 35023KT 06/M09 A3016 RMK A01 T00601092  RH  033%=      5-min Rain = 0
KAMH 111845Z 35021G27KT 06/M09 A3016 RMK A01 T00601091  RH  033%=      5-min Rain = 0
KAMH 111850Z 35020G26KT 06/M09 A3016 RMK A01 T00641091  RH  032%=      5-min Rain = 0
KAMH 111855Z 34021G27KT 07/M09 A3016 RMK A01 T00651092  RH  032%=      5-min Rain = 0
KAMH 111900Z 35019G24KT 07/M09 A3015 RMK A01 T00661091  RH  032%=      5-min Rain = 0
KAMH 111905Z 35020G26KT 07/M09 A3016 RMK A01 T00651091  RH  032%=      5-min Rain = 0
KAMH 111910Z 35022G28KT 07/M09 A3016 RMK A01 T00661091  RH  031%=      5-min Rain = 0
KAMH 111915Z 35021G26KT 07/M09 A3016 RMK A01 T00681091  RH  031%=      5-min Rain = 0
KAMH 111920Z 34023G29KT 07/M09 A3016 RMK A01 T00691092  RH  031%=      5-min Rain = 0
KAMH 111925Z 35022G28KT 07/M09 A3016 RMK A01 T00721091  RH  030%=      5-min Rain = 0
KAMH 111930Z 35024G31KT 07/M09 A3015 RMK A01 T00711093  RH  030%=      5-min Rain = 0
KAMH 111935Z 36022G28KT 07/M09 A3014 RMK A01 T00721092  RH  030%=      5-min Rain = 0
KAMH 111940Z 35023G29KT 07/M09 A3015 RMK A01 T00731092  RH  030%=      5-min Rain = 0
KAMH 111945Z 35023G28KT 07/M09 A3015 RMK A01 T00721093  RH  030%=      5-min Rain = 0
KAMH 111950Z 35020G26KT 07/M09 A3015 RMK A01 T00721092  RH  030%=      5-min Rain = 0
KAMH 111955Z 36021G27KT 08/M09 A3014 RMK A01 T00761092  RH  029%=      5-min Rain = 0
KAMH 112000Z 35023G28KT 08/M09 A3014 RMK A01 T00761092  RH  029%=      5-min Rain = 0
KAMH 112005Z 35024G29KT 08/M09 A3014 RMK A01 T00751094  RH  029%=      5-min Rain = 0
KAMH 112010Z 35023G31KT 08/M09 A3014 RMK A01 T00771094  RH  029%=      5-min Rain = 0
KAMH 112015Z 00022G30KT 08/M10 A3014 RMK A01 T00791095  RH  028%=      5-min Rain = 0
KAMH 112020Z 35025G33KT 08/M10 A3014 RMK A01 T00791097  RH  027%=      5-min Rain = 0
KAMH 112025Z 36025G30KT 08/M10 A3014 RMK A01 T00791099  RH  027%=      5-min Rain = 0
KAMH 112030Z 36023G29KT 08/M10 A3015 RMK A01 T00811098  RH  027%=      5-min Rain = 0
KAMH 112035Z 36022G30KT 08/M10 A3015 RMK A01 T00801098  RH  027%=      5-min Rain = 0
KAMH 112040Z 36023G31KT 08/M10 A3015 RMK A01 T00811102  RH  026%=      5-min Rain = 0
KAMH 112045Z 35020G27KT 08/M10 A3015 RMK A01 T00831099  RH  026%=      5-min Rain = 0
KAMH 112050Z 35022G28KT 08/M10 A3016 RMK A01 T00831101  RH  026%=      5-min Rain = 0
KAMH 112055Z 35021G27KT 08/M10 A3016 RMK A01 T00821100  RH  026%=      5-min Rain = 0
KAMH 112100Z 35019G25KT 08/M10 A3016 RMK A01 T00821100  RH  026%=      5-min Rain = 0
KAMH 112105Z 35020G31KT 08/M10 A3016 RMK A01 T00841103  RH  025%=      5-min Rain = 0
KAMH 112110Z 35020G25KT 09/M10 A3017 RMK A01 T00851102  RH  025%=      5-min Rain = 0
KAMH 112115Z 35019G25KT 09/M10 A3017 RMK A01 T00851101  RH  026%=      5-min Rain = 0
KAMH 112120Z 35020G25KT 08/M10 A3017 RMK A01 T00841101  RH  026%=      5-min Rain = 0
KAMH 112125Z 35021G27KT 08/M10 A3017 RMK A01 T00841103  RH  025%=      5-min Rain = 0
KAMH 112130Z 35020G27KT 08/M10 A3018 RMK A01 T00821103  RH  026%=      5-min Rain = 0
KAMH 112135Z 35020G25KT 08/M10 A3018 RMK A01 T00831102  RH  026%=      5-min Rain = 0
KAMH 112140Z 00018G24KT 08/M10 A3018 RMK A01 T00841103  RH  025%=      5-min Rain = 0
KAMH 112145Z 36018G23KT 09/M10 A3018 RMK A01 T00851102  RH  025%=      5-min Rain = 0
KAMH 112150Z 35019G29KT 08/M10 A3018 RMK A01 T00841104  RH  025%=      5-min Rain = 0
KAMH 112155Z 34017G22KT 08/M11 A3018 RMK A01 T00821106  RH  025%=      5-min Rain = 0
KAMH 112200Z 00017G23KT 09/M11 A3018 RMK A01 T00851105  RH  025%=      5-min Rain = 0
KAMH 112205Z 01016G22KT 08/M11 A3019 RMK A01 T00831105  RH  025%=      5-min Rain = 0
KAMH 112210Z 00019KT 08/M10 A3019 RMK A01 T00821104  RH  025%=      5-min Rain = 0
KAMH 112215Z 35016G21KT 08/M10 A3019 RMK A01 T00821102  RH  026%=      5-min Rain = 0
KAMH 112220Z 35016G21KT 08/M10 A3019 RMK A01 T00831104  RH  025%=      5-min Rain = 0
KAMH 112225Z 36016KT 08/M11 A3019 RMK A01 T00821105  RH  025%=      5-min Rain = 0
KAMH 112230Z 01015KT 08/M10 A302 RMK A01 T00811104  RH  026%=      5-min Rain = 0
KAMH 112235Z 36016G21KT 08/M10 A302 RMK A01 T00821102  RH  026%=      5-min Rain = 0
KAMH 112240Z 36017KT 08/M10 A302 RMK A01 T00811104  RH  026%=      5-min Rain = 0
KAMH 112245Z 36017G22KT 08/M11 A3021 RMK A01 T00801106  RH  025%=      5-min Rain = 0
KAMH 112250Z 36015G20KT 08/M11 A3021 RMK A01 T00781108  RH  025%=      5-min Rain = 0
KAMH 112255Z 35015KT 08/M11 A3021 RMK A01 T00761107  RH  026%=      5-min Rain = 0
KAMH 112300Z 35013KT 08/M11 A3021 RMK A01 T00771105  RH  026%=      5-min Rain = 0
KAMH 112305Z 00013KT 08/M11 A3021 RMK A01 T00751105  RH  026%=      5-min Rain = 0
KAMH 112310Z 00012KT 07/M11 A3022 RMK A01 T00741106  RH  026%=      5-min Rain = 0
KAMH 112315Z 35013KT 07/M11 A3022 RMK A01 T00731105  RH  027%=      5-min Rain = 0
KAMH 112320Z 36010KT 07/M10 A3023 RMK A01 T00721104  RH  027%=      5-min Rain = 0
KAMH 112325Z 35010KT 07/M11 A3023 RMK A01 T00711105  RH  027%=      5-min Rain = 0
KAMH 112330Z 35012KT 07/M11 A3023 RMK A01 T00691107  RH  027%=      5-min Rain = 0
KAMH 112335Z 35012KT 07/M11 A3023 RMK A01 T00671107  RH  028%=      5-min Rain = 0
KAMH 112340Z 35012KT 07/M11 A3023 RMK A01 T00651106  RH  028%=      5-min Rain = 0
KAMH 112345Z 35010KT 06/M11 A3023 RMK A01 T00631107  RH  028%=      5-min Rain = 0
KAMH 112350Z 36009KT 06/M11 A3023 RMK A01 T00591106  RH  029%=      5-min Rain = 0
KAMH 112355Z 36008KT 06/M11 A3024 RMK A01 T00571107  RH  030%=      5-min Rain = 0
KAMH 120000Z 00007KT 05/M11 A3024 RMK A01 T00541107  RH  030%=      5-min Rain = 0
KAMH 120005Z 00007KT 05/M11 A3024 RMK A01 T00501109  RH  031%=      5-min Rain = 0
KAMH 120010Z 00008KT 05/M11 A3024 RMK A01 T00451110  RH  031%=      5-min Rain = 0
KAMH 120015Z 00008KT 04/M11 A3024 RMK A01 T00421110  RH  032%=      5-min Rain = 0
KAMH 120020Z 00008KT 04/M11 A3024 RMK A01 T00401112  RH  032%=      5-min Rain = 0
KAMH 120025Z 00007KT 04/M11 A3024 RMK A01 T00371112  RH  033%=      5-min Rain = 0
KAMH 120030Z 00006KT 03/M11 A3024 RMK A01 T00331114  RH  033%=      5-min Rain = 0
KAMH 120035Z 01006KT 03/M12 A3024 RMK A01 T00281115  RH  034%=      5-min Rain = 0
KAMH 120040Z 00007KT 03/M11 A3024 RMK A01 T00261113  RH  035%=      5-min Rain = 0
KAMH 120045Z 00006KT 02/M11 A3024 RMK A01 T00241112  RH  036%=      5-min Rain = 0
KAMH 120050Z 01006KT 02/M11 A3024 RMK A01 T00241111  RH  036%=      5-min Rain = 0
KAMH 120055Z 00006KT 02/M11 A3024 RMK A01 T00211112  RH  036%=      5-min Rain = 0
KAMH 120100Z 00006KT 02/M11 A3025 RMK A01 T00171113  RH  037%=      5-min Rain = 0
KAMH 120105Z 00007KT 01/M11 A3025 RMK A01 T00141112  RH  038%=      5-min Rain = 0
KAMH 120110Z 00007KT 01/M11 A3025 RMK A01 T00111112  RH  039%=      5-min Rain = 0
KAMH 120115Z 00007KT 01/M11 A3025 RMK A01 T00091111  RH  040%=      5-min Rain = 0
KAMH 120120Z 01007KT 01/M11 A3025 RMK A01 T00101110  RH  040%=      5-min Rain = 0
KAMH 120125Z 01007KT 01/M11 A3026 RMK A01 T00141108  RH  040%=      5-min Rain = 0
KAMH 120130Z 02007KT 02/M11 A3026 RMK A01 T00151108  RH  039%=      5-min Rain = 0
KAMH 120135Z 03007KT 01/M11 A3026 RMK A01 T00131106  RH  041%=      5-min Rain = 0
KAMH 120140Z 03006KT 01/M10 A3025 RMK A01 T00121104  RH  041%=      5-min Rain = 0
KAMH 120145Z 03006KT 01/M11 A3025 RMK A01 T00111105  RH  041%=      5-min Rain = 0
KAMH 120150Z 04006KT 01/M11 A3025 RMK A01 T00091105  RH  042%=      5-min Rain = 0
KAMH 120155Z 04006KT 01/M11 A3025 RMK A01 T00071106  RH  042%=      5-min Rain = 0
KAMH 120200Z 04006KT 01/M11 A3025 RMK A01 T00061105  RH  043%=      5-min Rain = 0
KAMH 120205Z 04005KT 00/M11 A3025 RMK A01 T00041105  RH  043%=      5-min Rain = 0
KAMH 120210Z 05005KT 00/11 A3025 RMK A01 T00000-107  RH  044%=      5-min Rain = 0
KAMH 120215Z 05005KT M00/M11 A3025 RMK A01 T10041107  RH  046%=      5-min Rain = 0
KAMH 120220Z 05005KT M01/M11 A3025 RMK A01 T10061106  RH  047%=      5-min Rain = 0
KAMH 120225Z 05003KT M01/M11 A3025 RMK A01 T10081107  RH  047%=      5-min Rain = 0
KAMH 120230Z 05004KT M01/M11 A3025 RMK A01 T10101107  RH  047%=      5-min Rain = 0
KAMH 120235Z 05004KT M01/M11 A3025 RMK A01 T10111106  RH  048%=      5-min Rain = 0
KAMH 120240Z 05003KT M01/M11 A3025 RMK A01 T10111105  RH  049%=      5-min Rain = 0
KAMH 120245Z 05002KT M01/M10 A3025 RMK A01 T10111104  RH  049%=      5-min Rain = 0
KAMH 120250Z 05002KT M01/M10 A3025 RMK A01 T10111102  RH  050%=      5-min Rain = 0
KAMH 120255Z 05003KT M01/M10 A3025 RMK A01 T10111102  RH  050%=      5-min Rain = 0
KAMH 120300Z 04004KT M01/M10 A3025 RMK A01 T10111102  RH  050%=      5-min Rain = 0
KAMH 120305Z 04004KT M01/M11 A3025 RMK A01 T10091106  RH  048%=      5-min Rain = 0
KAMH 120310Z 05003KT M01/M11 A3025 RMK A01 T10121110  RH  047%=      5-min Rain = 0
KAMH 120315Z 05004KT M02/M11 A3025 RMK A01 T10151110  RH  048%=      5-min Rain = 0
KAMH 120320Z 05005KT M02/M11 A3025 RMK A01 T10151106  RH  050%=      5-min Rain = 0
KAMH 120325Z 05005KT M01/M11 A3025 RMK A01 T10131106  RH  049%=      5-min Rain = 0
KAMH 120330Z 05004KT M01/M11 A3025 RMK A01 T10141108  RH  049%=      5-min Rain = 0
KAMH 120335Z 05004KT M02/M11 A3025 RMK A01 T10161108  RH  049%=      5-min Rain = 0
KAMH 120340Z 05004KT M02/M11 A3025 RMK A01 T10191110  RH  050%=      5-min Rain = 0
KAMH 120345Z 05004KT M02/M11 A3025 RMK A01 T10211109  RH  051%=      5-min Rain = 0
KAMH 120350Z 04004KT M02/M11 A3025 RMK A01 T10211107  RH  052%=      5-min Rain = 0
KAMH 120355Z 05004KT M02/M11 A3025 RMK A01 T10201108  RH  051%=      5-min Rain = 0
KAMH 120400Z 05004KT M02/M11 A3026 RMK A01 T10191106  RH  051%=      5-min Rain = 0
KAMH 120405Z 05004KT M02/M11 A3026 RMK A01 T10181106  RH  051%=      5-min Rain = 0
KAMH 120410Z 04005KT M02/M11 A3026 RMK A01 T10181108  RH  050%=      5-min Rain = 0
KAMH 120415Z 03004KT M02/M11 A3026 RMK A01 T10201112  RH  049%=      5-min Rain = 0
KAMH 120420Z 03002KT M02/M11 A3026 RMK A01 T10231111  RH  051%=      5-min Rain = 0
KAMH 120425Z 04003KT M02/M11 A3026 RMK A01 T10221106  RH  052%=      5-min Rain = 0
KAMH 120430Z 04003KT M02/M11 A3027 RMK A01 T10201106  RH  052%=      5-min Rain = 0
KAMH 120435Z 03004KT M02/M11 A3027 RMK A01 T10201105  RH  052%=      5-min Rain = 0
KAMH 120440Z 03004KT M02/M11 A3026 RMK A01 T10211106  RH  052%=      5-min Rain = 0
KAMH 120445Z 04003KT M02/M11 A3027 RMK A01 T10231106  RH  053%=      5-min Rain = 0
KAMH 120450Z 04003KT M02/M10 A3027 RMK A01 T10221104  RH  053%=      5-min Rain = 0
KAMH 120455Z 04003KT M02/M10 A3027 RMK A01 T10211104  RH  052%=      5-min Rain = 0
KAMH 120500Z 05003KT M02/M11 A3027 RMK A01 T10211105  RH  052%=      5-min Rain = 0
KAMH 120505Z 04003KT M02/M11 A3027 RMK A01 T10221105  RH  053%=      5-min Rain = 0
KAMH 120510Z 04003KT M02/M11 A3027 RMK A01 T10241105  RH  054%=      5-min Rain = 0
KAMH 120515Z 05003KT M02/M10 A3027 RMK A01 T10241104  RH  054%=      5-min Rain = 0
KAMH 120520Z 06004KT M03/M11 A3026 RMK A01 T10251105  RH  054%=      5-min Rain = 0
KAMH 120525Z 05004KT M03/M11 A3027 RMK A01 T10271107  RH  054%=      5-min Rain = 0
KAMH 120530Z 05004KT M03/M11 A3027 RMK A01 T10291105  RH  055%=      5-min Rain = 0
KAMH 120535Z 05004KT M03/M10 A3027 RMK A01 T10281104  RH  055%=      5-min Rain = 0
KAMH 120540Z 05004KT M03/M11 A3027 RMK A01 T10281106  RH  055%=      5-min Rain = 0
KAMH 120545Z 06004KT M03/M11 A3026 RMK A01 T10281105  RH  055%=      5-min Rain = 0
KAMH 120550Z 06004KT M03/M11 A3026 RMK A01 T10291106  RH  055%=      5-min Rain = 0
KAMH 120555Z 06004KT M03/M11 A3026 RMK A01 T10301105  RH  056%=      5-min Rain = 0

Page generated in 0.0184 seconds.